createdAt,value
2018-04-12T00:00:03.283Z,90.17
2018-04-12T00:01:03.263Z,90.26
2018-04-12T00:02:03.255Z,90.26
2018-04-12T00:03:03.256Z,90.08
2018-04-12T00:04:03.249Z,90.08
2018-04-12T00:05:03.246Z,89.98
2018-04-12T00:06:03.250Z,89.60
2018-04-12T00:07:03.244Z,89.98
2018-04-12T00:08:03.234Z,90.45
2018-04-12T00:09:03.230Z,89.03
2018-04-12T00:10:03.227Z,88.84
2018-04-12T00:11:03.216Z,89.26
2018-04-12T00:12:03.211Z,90.84
2018-04-12T00:13:03.214Z,90.93
2018-04-12T00:14:03.216Z,90.64
2018-04-12T00:15:03.197Z,90.26
2018-04-12T00:16:03.202Z,90.26
2018-04-12T00:17:03.184Z,90.26
2018-04-12T00:18:03.193Z,86.65
2018-04-12T00:19:03.183Z,87.65
2018-04-12T00:20:03.183Z,87.17
2018-04-12T00:21:03.172Z,86.98
2018-04-12T00:22:03.176Z,85.55
2018-04-12T00:23:03.172Z,84.84
2018-04-12T00:24:03.159Z,85.03
2018-04-12T00:25:03.158Z,84.65
2018-04-12T00:26:03.151Z,84.75
2018-04-12T00:27:03.152Z,84.17
2018-04-12T00:28:03.156Z,83.32
2018-04-12T00:29:03.139Z,83.89
2018-04-12T00:30:03.123Z,83.70
2018-04-12T00:31:03.140Z,83.51
2018-04-12T00:32:03.126Z,84.46
2018-04-12T00:33:03.120Z,84.94
2018-04-12T00:34:03.124Z,84.94
2018-04-12T00:35:03.121Z,84.84
2018-04-12T00:36:03.105Z,85.13
2018-04-12T00:37:03.116Z,85.22
2018-04-12T00:38:03.095Z,86.46
2018-04-12T00:39:03.094Z,86.51
2018-04-12T00:40:03.085Z,87.89
2018-04-12T00:41:03.089Z,87.32
2018-04-12T00:42:03.075Z,88.08
2018-04-12T00:43:03.070Z,87.98
2018-04-12T00:44:03.068Z,88.18
2018-04-12T00:45:03.068Z,87.51
2018-04-12T00:46:03.071Z,88.08
2018-04-12T00:47:03.043Z,88.84
2018-04-12T00:48:03.041Z,89.61
2018-04-12T00:49:03.039Z,89.03
2018-04-12T00:50:03.039Z,89.46
2018-04-12T00:51:03.036Z,89.26
2018-04-12T00:52:03.035Z,89.46
2018-04-12T00:53:03.024Z,88.18
2018-04-12T00:54:03.016Z,88.18
2018-04-12T00:55:03.011Z,89.03
2018-04-12T00:56:03.007Z,88.56
2018-04-12T00:57:02.998Z,88.75
2018-04-12T00:58:02.995Z,89.61
2018-04-12T00:59:02.995Z,89.22
2018-04-12T01:00:02.980Z,88.84
2018-04-12T01:01:02.984Z,89.51
2018-04-12T01:02:02.974Z,88.65
2018-04-12T01:03:02.984Z,88.75
2018-04-12T01:04:02.960Z,88.65
2018-04-12T01:05:02.957Z,88.18
2018-04-12T01:06:02.968Z,89.03
2018-04-12T01:07:02.949Z,89.61
2018-04-12T01:08:02.935Z,88.75
2018-04-12T01:09:02.948Z,89.61
2018-04-12T01:10:02.920Z,88.56
2018-04-12T01:11:02.938Z,88.56
2018-04-12T01:12:02.923Z,88.65
2018-04-12T01:13:02.925Z,88.18
2018-04-12T01:14:02.910Z,88.56
2018-04-12T01:15:02.909Z,88.75
2018-04-12T01:16:02.899Z,88.37
2018-04-12T01:17:02.898Z,88.84
2018-04-12T01:18:02.898Z,88.93
2018-04-12T01:19:02.890Z,88.84
2018-04-12T01:20:02.889Z,88.65
2018-04-12T01:21:02.884Z,89.70
2018-04-12T01:22:02.873Z,89.70
2018-04-12T01:23:02.876Z,89.79
2018-04-12T01:24:02.863Z,89.89
2018-04-12T01:25:02.916Z,89.61
2018-04-12T01:26:02.918Z,89.98
2018-04-12T01:27:02.930Z,90.56
2018-04-12T01:28:02.935Z,90.65
2018-04-12T01:29:02.836Z,89.79
2018-04-12T02:02:39.969Z,92.22
2018-04-12T02:03:39.917Z,92.03
2018-04-12T02:05:32.915Z,91.84
2018-04-12T02:06:32.901Z,92.13
2018-04-12T02:08:25.908Z,92.22
2018-04-12T02:09:25.865Z,92.03
2018-04-12T02:11:18.969Z,91.94
2018-04-12T02:12:18.994Z,91.84
2018-04-12T02:14:11.866Z,92.60
2018-04-12T02:15:11.866Z,92.22
2018-04-12T02:17:04.972Z,92.03
2018-04-12T02:18:04.838Z,91.55
2018-04-12T02:19:57.837Z,92.89
2018-04-12T02:20:57.818Z,92.03
2018-04-12T02:22:51.033Z,91.65
2018-04-12T02:23:50.848Z,92.79
2018-04-12T02:25:43.768Z,92.84
2018-04-12T02:26:43.767Z,91.99
2018-04-12T02:28:36.663Z,92.46
2018-04-12T02:29:36.641Z,92.69
2018-04-12T02:31:29.577Z,92.22
2018-04-12T02:32:29.554Z,91.84
2018-04-12T02:34:22.465Z,92.32
2018-04-12T02:35:22.453Z,92.50
2018-04-12T02:36:22.443Z,91.46
2018-04-12T02:37:22.445Z,92.03
2018-04-12T02:38:22.446Z,91.79
2018-04-12T02:39:22.433Z,91.88
2018-04-12T02:40:22.425Z,92.08
2018-04-12T02:41:22.427Z,91.94
2018-04-12T02:42:22.416Z,92.03
2018-04-12T02:43:22.423Z,92.41
2018-04-12T02:44:22.412Z,91.74
2018-04-12T02:45:22.408Z,92.03
2018-04-12T02:46:22.402Z,92.50
2018-04-12T02:47:22.403Z,92.98
2018-04-12T02:48:22.392Z,92.89
2018-04-12T02:49:22.382Z,92.22
2018-04-12T02:50:22.386Z,92.22
2018-04-12T02:51:22.385Z,92.41
2018-04-12T02:52:22.381Z,92.60
2018-04-12T02:53:22.379Z,92.60
2018-04-12T02:54:22.365Z,92.60
2018-04-12T02:55:22.359Z,91.88
2018-04-12T02:56:22.360Z,91.88
2018-04-12T02:57:22.350Z,91.88
2018-04-12T02:58:22.350Z,91.41
2018-04-12T02:59:22.339Z,92.08
2018-04-12T03:00:22.335Z,92.08
2018-04-12T03:01:22.358Z,91.94
2018-04-12T03:02:22.331Z,92.22
2018-04-12T03:03:22.324Z,92.60
2018-04-12T03:04:22.307Z,91.94
2018-04-12T03:05:22.330Z,92.60
2018-04-12T03:06:22.307Z,92.69
2018-04-12T03:07:22.305Z,92.69
2018-04-12T03:08:22.298Z,92.98
2018-04-12T03:09:22.339Z,92.22
2018-04-12T03:10:22.298Z,92.13
2018-04-12T03:11:22.284Z,92.32
2018-04-12T03:12:22.282Z,92.60
2018-04-12T03:13:22.277Z,92.50
2018-04-12T03:14:22.275Z,92.79
2018-04-12T03:15:22.271Z,93.37
2018-04-12T03:16:22.263Z,92.03
2018-04-12T03:17:22.260Z,92.69
2018-04-12T03:18:22.255Z,92.32
2018-04-12T03:19:22.249Z,91.69
2018-04-12T03:20:22.248Z,91.79
2018-04-12T03:21:22.252Z,91.22
2018-04-12T03:22:22.236Z,90.84
2018-04-12T03:23:22.231Z,90.93
2018-04-12T03:24:22.231Z,90.74
2018-04-12T03:25:22.219Z,91.41
2018-04-12T03:26:22.214Z,91.50
2018-04-12T03:27:22.222Z,91.31
2018-04-12T03:28:22.205Z,91.69
2018-04-12T03:29:22.196Z,91.60
2018-04-12T03:30:22.207Z,92.03
2018-04-12T03:31:22.198Z,91.74
2018-04-12T03:32:22.203Z,92.22
2018-04-12T03:33:22.188Z,92.22
2018-04-12T03:34:22.185Z,91.94
2018-04-12T03:35:22.177Z,91.65
2018-04-12T03:36:22.180Z,91.89
2018-04-12T03:37:22.165Z,92.36
2018-04-12T03:38:22.156Z,92.18
2018-04-12T03:39:22.155Z,92.46
2018-04-12T03:40:22.161Z,92.74
2018-04-12T03:41:22.149Z,93.03
2018-04-12T03:42:22.145Z,93.22
2018-04-12T03:43:22.139Z,93.22
2018-04-12T03:44:22.137Z,92.84
2018-04-12T03:45:22.130Z,92.18
2018-04-12T03:46:22.130Z,92.65
2018-04-12T03:47:22.121Z,92.46
2018-04-12T03:48:22.119Z,92.32
2018-04-12T03:49:22.213Z,92.99
2018-04-12T03:50:22.191Z,93.27
2018-04-12T03:51:22.101Z,92.79
2018-04-12T03:52:22.098Z,93.22
2018-04-12T03:53:22.094Z,92.65
2018-04-12T03:54:22.078Z,92.79
2018-04-12T03:55:22.097Z,92.79
2018-04-12T03:56:22.078Z,93.27
2018-04-12T03:57:22.073Z,93.27
2018-04-12T03:58:22.064Z,92.60
2018-04-12T03:59:22.046Z,92.41
2018-04-12T04:00:22.055Z,92.60
2018-04-12T04:01:22.053Z,93.27
2018-04-12T04:02:22.047Z,93.37
2018-04-12T04:03:22.035Z,93.60
2018-04-12T04:04:22.032Z,93.03
2018-04-12T04:05:22.032Z,93.32
2018-04-12T04:06:22.030Z,92.74
2018-04-12T04:07:22.082Z,92.55
2018-04-12T04:08:22.011Z,92.36
2018-04-12T04:09:22.018Z,91.22
2018-04-12T04:10:21.994Z,92.46
2018-04-12T04:11:21.994Z,93.70
2018-04-12T04:12:21.994Z,93.13
2018-04-12T04:13:21.996Z,92.84
2018-04-12T04:14:21.971Z,92.18
2018-04-12T04:15:21.982Z,92.46
2018-04-12T04:16:21.979Z,92.41
2018-04-12T04:17:21.985Z,93.08
2018-04-12T04:18:21.972Z,92.70
2018-04-12T04:19:21.951Z,92.60
2018-04-12T04:20:21.954Z,92.41
2018-04-12T04:21:21.956Z,92.32
2018-04-12T04:22:21.938Z,92.99
2018-04-12T04:23:21.946Z,93.27
2018-04-12T04:24:21.936Z,92.79
2018-04-12T04:25:21.939Z,92.89
2018-04-12T04:26:21.936Z,93.08
2018-04-12T04:27:21.934Z,92.22
2018-04-12T04:28:21.911Z,92.89
2018-04-12T04:29:21.907Z,93.51
2018-04-12T04:30:21.918Z,93.51
2018-04-12T04:31:21.897Z,92.94
2018-04-12T04:32:21.893Z,91.99
2018-04-12T04:33:21.890Z,92.74
2018-04-12T04:34:21.878Z,93.13
2018-04-12T04:35:21.877Z,92.84
2018-04-12T04:36:21.881Z,93.22
2018-04-12T04:37:21.865Z,92.84
2018-04-12T04:38:21.863Z,93.13
2018-04-12T04:39:21.852Z,92.84
2018-04-12T04:40:21.849Z,93.84
2018-04-12T04:41:21.853Z,93.93
2018-04-12T04:42:21.832Z,92.93
2018-04-12T04:43:21.840Z,91.79
2018-04-12T04:44:21.842Z,92.36
2018-04-12T04:45:21.828Z,92.27
2018-04-12T04:46:21.827Z,92.84
2018-04-12T04:47:21.816Z,92.55
2018-04-12T04:48:21.812Z,92.36
2018-04-12T04:49:21.817Z,92.08
2018-04-12T04:50:21.808Z,92.65
2018-04-12T04:51:21.802Z,93.22
2018-04-12T04:52:21.796Z,92.46
2018-04-12T04:53:21.791Z,91.60
2018-04-12T04:54:21.864Z,92.46
2018-04-12T04:55:21.783Z,91.79
2018-04-12T04:56:21.773Z,92.27
2018-04-12T04:57:21.788Z,91.93
2018-04-12T04:58:21.774Z,92.41
2018-04-12T04:59:21.760Z,92.32
2018-04-12T05:00:21.768Z,91.46
2018-04-12T05:01:21.758Z,92.32
2018-04-12T05:02:21.745Z,92.41
2018-04-12T05:03:21.756Z,91.64
2018-04-12T05:04:21.764Z,91.55
2018-04-12T05:05:21.740Z,90.98
2018-04-12T05:06:21.735Z,91.36
2018-04-12T05:07:21.723Z,91.74
2018-04-12T05:08:21.775Z,91.55
2018-04-12T05:09:21.713Z,91.46
2018-04-12T05:10:21.713Z,91.64
2018-04-12T05:11:21.717Z,92.03
2018-04-12T05:12:21.708Z,91.93
2018-04-12T05:13:21.707Z,92.32
2018-04-12T05:14:21.699Z,91.83
2018-04-12T05:15:21.695Z,91.55
2018-04-12T05:16:21.690Z,92.41
2018-04-12T05:17:21.692Z,92.12
2018-04-12T05:18:21.677Z,92.60
2018-04-12T05:19:21.672Z,91.83
2018-04-12T05:20:21.678Z,91.55
2018-04-12T05:21:21.698Z,92.41
2018-04-12T05:22:21.669Z,91.88
2018-04-12T05:23:21.674Z,91.31
2018-04-12T05:24:21.665Z,91.21
2018-04-12T05:25:21.664Z,91.41
2018-04-12T05:26:21.659Z,90.64
2018-04-12T05:27:21.683Z,90.55
2018-04-12T05:28:21.643Z,91.12
2018-04-12T05:29:21.645Z,90.93
2018-04-12T05:30:21.637Z,91.41
2018-04-12T05:31:21.638Z,91.41
2018-04-12T05:32:21.644Z,90.83
2018-04-12T05:33:21.631Z,90.55
2018-04-12T05:34:21.644Z,89.40
2018-04-12T05:35:21.627Z,89.54
2018-04-12T05:36:21.620Z,88.97
2018-04-12T05:37:21.628Z,89.45
2018-04-12T05:38:21.619Z,89.54
2018-04-12T05:39:21.611Z,88.87
2018-04-12T05:40:21.601Z,87.82
2018-04-12T05:41:21.601Z,86.87
2018-04-12T05:42:21.633Z,86.30
2018-04-12T05:43:21.622Z,86.49
2018-04-12T05:44:21.629Z,87.20
2018-04-12T05:45:21.619Z,88.20
2018-04-12T05:46:21.634Z,88.30
2018-04-12T05:47:21.590Z,88.30
2018-04-12T05:48:21.594Z,88.73
2018-04-12T05:49:21.574Z,87.48
2018-04-12T05:50:21.587Z,86.34
2018-04-12T05:51:21.573Z,85.77
2018-04-12T05:52:21.574Z,86.05
2018-04-12T05:53:21.582Z,85.38
2018-04-12T05:54:21.570Z,85.29
2018-04-12T05:55:21.587Z,85.67
2018-04-12T05:56:21.578Z,86.15
2018-04-12T05:57:21.567Z,85.96
2018-04-12T05:58:21.559Z,85.67
2018-04-12T05:59:21.557Z,85.19
2018-04-12T06:00:21.558Z,86.53
2018-04-12T06:01:21.554Z,87.20
2018-04-12T06:02:21.560Z,87.68
2018-04-12T06:03:21.540Z,88.34
2018-04-12T06:04:21.535Z,89.11
2018-04-12T06:05:21.554Z,88.73
2018-04-12T06:06:21.543Z,87.96
2018-04-12T06:07:21.611Z,88.82
2018-04-12T06:08:21.539Z,89.49
2018-04-12T06:09:21.530Z,90.25
2018-04-12T06:10:21.537Z,90.06
2018-04-12T06:11:21.527Z,88.82
2018-04-12T06:12:21.537Z,87.62
2018-04-12T06:13:21.518Z,87.24
2018-04-12T06:14:21.523Z,88.44
2018-04-12T06:15:21.524Z,86.00
2018-04-12T06:16:21.531Z,85.29
2018-04-12T06:17:21.519Z,83.80
2018-04-12T06:18:21.514Z,83.61
2018-04-12T06:19:21.559Z,84.28
2018-04-12T06:20:21.536Z,84.28
2018-04-12T06:21:21.519Z,84.28
2018-04-12T06:22:21.507Z,84.76
2018-04-12T06:23:21.501Z,85.24
2018-04-12T06:24:21.577Z,86.29
2018-04-12T06:25:21.500Z,85.90
2018-04-12T06:26:21.502Z,85.62
2018-04-12T06:27:21.498Z,84.19
2018-04-12T06:28:21.501Z,83.13
2018-04-12T06:29:21.503Z,82.60
2018-04-12T06:30:21.502Z,81.65
2018-04-12T06:31:21.492Z,79.87
2018-04-12T06:32:21.497Z,77.86
2018-04-12T06:33:21.492Z,77.38
2018-04-12T06:34:21.477Z,76.71
2018-04-12T06:35:21.490Z,75.95
2018-04-12T06:36:21.504Z,77.38
2018-04-12T06:37:21.477Z,78.05
2018-04-12T06:38:21.484Z,77.67
2018-04-12T06:39:21.495Z,79.49
2018-04-12T06:40:21.484Z,79.96
2018-04-12T06:41:21.469Z,77.48
2018-04-12T06:42:21.491Z,78.63
2018-04-12T06:43:21.488Z,77.76
2018-04-12T06:44:21.461Z,78.14
2018-04-12T06:45:21.471Z,76.42
2018-04-12T06:46:21.578Z,76.81
2018-04-12T06:47:21.474Z,76.08
2018-04-12T06:48:21.471Z,74.36
2018-04-12T06:49:21.461Z,73.65
2018-04-12T06:50:21.476Z,76.23
2018-04-12T06:51:21.465Z,77.09
2018-04-12T06:52:21.465Z,79.35
2018-04-12T06:53:21.467Z,78.53
2018-04-12T06:54:21.471Z,78.24
2018-04-12T06:55:21.462Z,77.86
2018-04-12T06:56:21.471Z,77.72
2018-04-12T06:57:21.454Z,78.97
2018-04-12T06:58:21.461Z,79.49
2018-04-12T06:59:21.458Z,78.53
2018-04-12T07:00:21.456Z,79.25
2018-04-12T07:01:21.449Z,78.39
2018-04-12T07:02:21.464Z,77.82
2018-04-12T07:03:21.492Z,79.16
2018-04-12T07:04:21.468Z,79.93
2018-04-12T07:05:21.456Z,80.79
2018-04-12T07:06:21.444Z,80.98
2018-04-12T07:07:21.450Z,80.79
2018-04-12T07:08:21.466Z,81.07
2018-04-12T07:09:21.448Z,81.84
2018-04-12T07:10:21.441Z,79.49
2018-04-12T07:11:21.445Z,80.06
2018-04-12T07:12:21.449Z,79.87
2018-04-12T07:13:21.455Z,78.11
2018-04-12T07:14:21.427Z,79.20
2018-04-12T07:15:21.437Z,79.93
2018-04-12T07:16:21.448Z,80.02
2018-04-12T07:17:21.429Z,80.88
2018-04-12T07:18:21.434Z,81.78
2018-04-12T07:19:21.435Z,79.87
2018-04-12T07:20:21.438Z,80.06
2018-04-12T07:21:21.440Z,79.96
2018-04-12T07:22:21.449Z,81.21
2018-04-12T07:23:21.432Z,81.11
2018-04-12T07:24:21.428Z,81.68
2018-04-12T07:25:21.427Z,81.21
2018-04-12T07:26:21.435Z,82.26
2018-04-12T07:27:21.432Z,81.02
2018-04-12T07:28:21.428Z,81.40
2018-04-12T07:29:21.420Z,81.68
2018-04-12T07:30:21.424Z,81.11
2018-04-12T07:31:21.424Z,81.02
2018-04-12T07:32:21.422Z,78.05
2018-04-12T07:33:21.422Z,76.27
2018-04-12T07:34:21.420Z,75.22
2018-04-12T07:35:21.432Z,75.98
2018-04-12T07:36:21.424Z,75.85
2018-04-12T07:37:21.446Z,77.09
2018-04-12T07:38:21.416Z,78.34
2018-04-12T07:39:21.413Z,78.14
2018-04-12T07:40:21.424Z,79.00
2018-04-12T07:41:21.421Z,79.10
2018-04-12T07:42:21.434Z,80.25
2018-04-12T07:43:21.423Z,79.68
2018-04-12T07:44:21.417Z,79.39
2018-04-12T07:45:21.418Z,80.06
2018-04-12T07:46:21.413Z,77.19
2018-04-12T07:47:21.419Z,75.34
2018-04-12T07:48:21.426Z,75.52
2018-04-12T07:49:21.409Z,75.56
2018-04-12T07:50:21.417Z,75.56
2018-04-12T07:51:21.410Z,75.05
2018-04-12T07:52:21.414Z,74.09
2018-04-12T07:53:21.419Z,76.29
2018-04-12T07:54:21.430Z,74.99
2018-04-12T07:55:21.420Z,75.27
2018-04-12T07:56:21.423Z,75.62
2018-04-12T07:57:21.417Z,76.81
2018-04-12T07:58:21.423Z,76.10
2018-04-12T07:59:21.405Z,75.14
2018-04-12T08:00:21.407Z,75.14
2018-04-12T08:01:21.398Z,76.48
2018-04-12T08:02:21.408Z,76.96
2018-04-12T08:03:21.407Z,76.04
2018-04-12T08:04:21.408Z,73.84
2018-04-12T08:05:21.407Z,72.88
2018-04-12T08:06:21.396Z,73.75
2018-04-12T08:07:21.400Z,72.69
2018-04-12T08:08:21.400Z,70.53
2018-04-12T08:09:21.400Z,70.81
2018-04-12T08:10:21.408Z,73.94
2018-04-12T08:11:21.392Z,72.41
2018-04-12T08:12:21.386Z,72.31
2018-04-12T08:13:21.389Z,73.08
2018-04-12T08:14:21.387Z,73.79
2018-04-12T08:15:21.396Z,73.27
2018-04-12T08:16:21.393Z,74.55
2018-04-12T08:17:21.412Z,72.73
2018-04-12T08:18:21.393Z,70.43
2018-04-12T08:19:21.387Z,72.25
2018-04-12T08:20:21.398Z,71.20
2018-04-12T08:21:21.392Z,69.86
2018-04-12T08:22:21.394Z,69.19
2018-04-12T08:23:21.393Z,70.09
2018-04-12T08:24:21.408Z,69.03
2018-04-12T08:25:21.454Z,69.51
2018-04-12T08:26:21.380Z,68.17
2018-04-12T08:27:21.385Z,68.55
2018-04-12T08:28:21.389Z,68.65
2018-04-12T08:29:21.393Z,67.31
2018-04-12T08:30:21.402Z,67.98
2018-04-12T08:31:21.404Z,67.50
2018-04-12T08:32:21.392Z,67.44
2018-04-12T08:33:21.418Z,67.25
2018-04-12T08:34:21.517Z,66.09
2018-04-12T08:35:21.400Z,64.28
2018-04-12T08:36:21.396Z,64.89
2018-04-12T08:37:21.403Z,64.37
2018-04-12T08:38:21.401Z,64.47
2018-04-12T08:39:21.404Z,61.31
2018-04-12T08:40:21.395Z,61.50
2018-04-12T08:41:21.406Z,62.74
2018-04-12T08:42:21.392Z,61.63
2018-04-12T08:43:21.395Z,60.06
2018-04-12T08:44:21.398Z,59.61
2018-04-12T08:45:21.399Z,58.46
2018-04-12T08:46:21.408Z,58.08
2018-04-12T08:47:21.413Z,57.50
2018-04-12T08:48:21.417Z,57.12
2018-04-12T08:49:21.427Z,55.78
2018-04-12T08:50:21.417Z,55.49
2018-04-12T08:51:21.426Z,55.68
2018-04-12T08:52:21.436Z,55.58
2018-04-12T08:53:21.432Z,54.17
2018-04-12T08:54:21.428Z,53.70
2018-04-12T08:55:21.434Z,54.46
2018-04-12T08:56:21.434Z,54.05
2018-04-12T08:57:21.446Z,54.82
2018-04-12T08:58:21.445Z,55.49
2018-04-12T08:59:21.435Z,55.58
2018-04-12T09:00:21.440Z,55.30
2018-04-12T09:01:21.469Z,54.72
2018-04-12T09:02:21.457Z,54.27
2018-04-12T09:03:21.454Z,56.48
2018-04-12T09:04:21.467Z,56.02
2018-04-12T09:05:21.462Z,53.53
2018-04-12T09:06:21.474Z,54.88
2018-04-12T09:07:21.476Z,55.83
2018-04-12T09:08:21.460Z,54.71
2018-04-12T09:09:21.481Z,55.69
2018-04-12T09:10:21.472Z,55.60
2018-04-12T09:11:21.479Z,55.12
2018-04-12T09:12:21.486Z,53.87
2018-04-12T09:13:21.544Z,52.81
2018-04-12T09:14:21.488Z,54.12
2018-04-12T09:15:21.498Z,53.92
2018-04-12T09:16:21.510Z,52.44
2018-04-12T09:17:21.508Z,50.15
2018-04-12T09:18:21.516Z,49.41
2018-04-12T09:19:21.515Z,47.97
2018-04-12T09:20:21.530Z,47.75
2018-04-12T09:21:21.536Z,48.49
2018-04-12T09:22:21.542Z,44.93
2018-04-12T09:23:21.541Z,44.35
2018-04-12T09:24:21.555Z,47.92
2018-04-12T09:25:21.563Z,49.29
2018-04-12T09:26:21.568Z,47.87
2018-04-12T09:27:21.570Z,46.83
2018-04-12T09:28:21.597Z,46.18
2018-04-12T09:29:21.597Z,44.08
2018-04-12T09:30:21.607Z,44.18
2018-04-12T09:31:21.616Z,44.54
2018-04-12T09:32:21.633Z,43.31
2018-04-12T09:33:21.672Z,43.75
2018-04-12T09:34:21.650Z,44.13
2018-04-12T09:35:21.655Z,44.35
2018-04-12T09:36:21.671Z,44.20
2018-04-12T09:37:21.686Z,42.05
2018-04-12T09:38:21.694Z,42.25
2018-04-12T09:39:21.706Z,42.25
2018-04-12T09:40:21.711Z,42.27
2018-04-12T09:41:21.790Z,41.98
2018-04-12T09:42:21.743Z,42.56
2018-04-12T09:43:21.788Z,42.03
2018-04-12T09:44:21.767Z,42.27
2018-04-12T09:45:21.789Z,40.70
2018-04-12T09:46:21.806Z,40.11
2018-04-12T09:47:21.821Z,41.78
2018-04-12T09:48:21.830Z,42.29
2018-04-12T09:49:21.892Z,41.35
2018-04-12T09:50:21.852Z,40.77
2018-04-12T09:51:21.871Z,40.09
2018-04-12T09:52:21.886Z,38.56
2018-04-12T09:53:21.915Z,38.83
2018-04-12T09:54:21.917Z,38.23
2018-04-12T09:55:21.922Z,37.95
2018-04-12T09:56:21.948Z,37.67
2018-04-12T09:57:21.976Z,37.95
2018-04-12T09:58:21.995Z,38.71
2018-04-12T09:59:22.005Z,40.15
2018-04-12T10:00:22.009Z,39.39
2018-04-12T10:01:22.018Z,39.22
2018-04-12T10:02:22.031Z,38.81
2018-04-12T10:03:22.058Z,37.73
2018-04-12T10:04:22.059Z,39.09
2018-04-12T10:05:22.086Z,37.63
2018-04-12T10:06:22.090Z,37.98
2018-04-12T10:07:22.104Z,38.66
2018-04-12T10:08:22.118Z,39.94
2018-04-12T10:09:22.148Z,38.01
2018-04-12T10:10:22.148Z,37.56
2018-04-12T10:11:22.171Z,37.25
2018-04-12T10:12:22.182Z,37.62
2018-04-12T10:13:22.194Z,38.93
2018-04-12T10:14:22.200Z,39.36
2018-04-12T10:15:22.220Z,38.76
2018-04-12T10:16:22.224Z,37.54
2018-04-12T10:17:22.254Z,36.22
2018-04-12T10:18:22.259Z,36.00
2018-04-12T10:19:22.272Z,37.13
2018-04-12T10:20:22.284Z,37.79
2018-04-12T10:21:22.315Z,38.18
2018-04-12T10:22:22.316Z,38.43
2018-04-12T10:23:22.327Z,39.97
2018-04-12T10:24:22.343Z,41.05
2018-04-12T10:25:22.359Z,39.72
2018-04-12T10:26:22.379Z,38.78
2018-04-12T10:27:22.374Z,38.20
2018-04-12T10:28:22.386Z,38.83
2018-04-12T10:29:22.409Z,40.16
2018-04-12T10:30:22.408Z,41.11
2018-04-12T10:31:22.444Z,41.28
2018-04-12T10:32:22.439Z,41.11
2018-04-12T10:33:22.442Z,41.59
2018-04-12T10:34:22.453Z,41.39
2018-04-12T10:35:22.478Z,41.41
2018-04-12T10:36:22.494Z,40.94
2018-04-12T10:37:22.501Z,41.05
2018-04-12T10:38:22.508Z,41.22
2018-04-12T10:39:22.543Z,42.33
2018-04-12T10:40:22.544Z,42.46
2018-04-12T10:41:22.549Z,42.41
2018-04-12T10:42:22.562Z,42.91
2018-04-12T10:43:22.572Z,42.91
2018-04-12T10:44:22.608Z,43.01
2018-04-12T10:45:22.589Z,43.01
2018-04-12T10:46:22.602Z,42.16
2018-04-12T10:47:22.598Z,42.36
2018-04-12T10:48:22.620Z,42.21
2018-04-12T10:49:22.636Z,42.09
2018-04-12T10:50:22.643Z,41.22
2018-04-12T10:51:22.656Z,41.11
2018-04-12T10:52:22.664Z,41.76
2018-04-12T10:53:22.671Z,42.22
2018-04-12T10:54:22.674Z,42.24
2018-04-12T10:55:22.687Z,42.22
2018-04-12T10:56:22.697Z,43.85
2018-04-12T10:57:22.702Z,42.82
2018-04-12T10:58:22.712Z,42.77
2018-04-12T10:59:22.736Z,43.35
2018-04-12T11:00:22.741Z,43.35
2018-04-12T11:01:22.747Z,43.07
2018-04-12T11:02:22.765Z,44.22
2018-04-12T11:03:22.772Z,44.02
2018-04-12T11:04:22.777Z,44.22
2018-04-12T11:05:22.782Z,45.01
2018-04-12T11:06:22.791Z,45.03
2018-04-12T11:07:22.801Z,43.20
2018-04-12T11:08:22.801Z,42.80
2018-04-12T11:09:22.811Z,44.43
2018-04-12T11:10:22.842Z,44.72
2018-04-12T11:11:22.832Z,44.34
2018-04-12T11:12:22.841Z,43.68
2018-04-12T11:13:22.844Z,42.53
2018-04-12T11:14:22.870Z,42.82
2018-04-12T11:15:22.871Z,43.47
2018-04-12T11:16:22.873Z,44.43
2018-04-12T11:17:22.885Z,45.08
2018-04-12T11:18:22.926Z,44.79
2018-04-12T11:19:22.917Z,43.74
2018-04-12T11:20:22.922Z,43.62
2018-04-12T11:21:22.956Z,44.96
2018-04-12T11:22:22.960Z,44.60
2018-04-12T11:23:22.952Z,45.68
2018-04-12T11:24:22.958Z,43.45
2018-04-12T11:25:22.944Z,43.23
2018-04-12T11:26:22.944Z,44.29
2018-04-12T11:27:22.951Z,44.58
2018-04-12T11:28:22.956Z,44.77
2018-04-12T11:29:22.971Z,44.65
2018-04-12T11:30:22.995Z,44.15
2018-04-12T11:31:22.984Z,44.44
2018-04-12T11:32:22.988Z,45.32
2018-04-12T11:33:22.995Z,44.65
2018-04-12T11:34:23.125Z,44.84
2018-04-12T11:35:23.005Z,45.15
2018-04-12T11:36:23.002Z,45.04
2018-04-12T11:37:23.006Z,45.61
2018-04-12T11:38:23.008Z,44.84
2018-04-12T11:39:23.012Z,45.52
2018-04-12T11:40:23.017Z,45.21
2018-04-12T11:41:23.024Z,45.21
2018-04-12T11:42:23.029Z,46.94
2018-04-12T11:43:23.038Z,47.89
2018-04-12T11:44:23.033Z,47.68
2018-04-12T11:45:23.040Z,47.68
2018-04-12T11:46:23.044Z,47.01
2018-04-12T11:47:23.040Z,47.10
2018-04-12T11:48:23.057Z,48.07
2018-04-12T11:49:23.052Z,47.99
2018-04-12T11:50:23.056Z,48.09
2018-04-12T11:51:23.059Z,46.84
2018-04-12T11:52:23.068Z,46.65
2018-04-12T11:53:23.077Z,47.01
2018-04-12T11:54:23.067Z,46.91
2018-04-12T11:55:23.077Z,46.36
2018-04-12T11:56:23.074Z,45.57
2018-04-12T11:57:23.089Z,46.26
2018-04-12T11:58:23.105Z,46.26
2018-04-12T11:59:23.084Z,45.30
2018-04-12T12:00:23.092Z,46.55
2018-04-12T12:01:23.093Z,44.24
2018-04-12T12:02:23.126Z,45.01
2018-04-12T12:03:23.101Z,44.63
2018-04-12T12:04:23.102Z,43.65
2018-04-12T12:05:23.109Z,44.15
2018-04-12T12:06:23.117Z,44.63
2018-04-12T12:07:23.113Z,44.90
2018-04-12T12:08:23.122Z,44.70
2018-04-12T12:09:23.127Z,44.23
2018-04-12T12:10:23.121Z,44.90
2018-04-12T12:11:23.127Z,43.84
2018-04-12T12:12:23.166Z,44.03
2018-04-12T12:13:23.130Z,43.27
2018-04-12T12:14:23.123Z,43.17
2018-04-12T12:15:23.134Z,43.07
2018-04-12T12:16:23.152Z,43.84
2018-04-12T12:17:23.136Z,43.24
2018-04-12T12:18:23.135Z,43.07
2018-04-12T12:19:23.164Z,42.50
2018-04-12T12:20:23.135Z,42.40
2018-04-12T12:21:23.154Z,42.21
2018-04-12T12:22:23.145Z,42.02
2018-04-12T12:23:23.160Z,42.02
2018-04-12T12:24:23.183Z,40.48
2018-04-12T12:25:23.158Z,41.16
2018-04-12T12:26:23.153Z,42.30
2018-04-12T12:27:23.161Z,41.44
2018-04-12T12:28:23.158Z,40.96
2018-04-12T12:29:23.167Z,40.96
2018-04-12T12:30:23.173Z,40.67
2018-04-12T12:31:23.172Z,41.73
2018-04-12T12:32:23.186Z,42.33
2018-04-12T12:33:23.185Z,40.89
2018-04-12T12:34:23.169Z,40.58
2018-04-12T12:35:23.183Z,40.10
2018-04-12T12:36:23.199Z,40.10
2018-04-12T12:37:23.177Z,40.96
2018-04-12T12:38:23.191Z,40.10
2018-04-12T12:39:23.200Z,38.59
2018-04-12T12:40:23.194Z,38.78
2018-04-12T12:41:23.208Z,39.72
2018-04-12T12:42:23.200Z,40.00
2018-04-12T12:43:23.210Z,40.20
2018-04-12T12:44:23.208Z,39.53
2018-04-12T12:45:23.206Z,39.62
2018-04-12T12:46:23.207Z,40.00
2018-04-12T12:47:23.212Z,39.26
2018-04-12T12:48:23.218Z,39.26
2018-04-12T12:49:23.203Z,38.87
2018-04-12T12:50:23.219Z,38.10
2018-04-12T12:51:23.220Z,38.01
2018-04-12T12:52:23.233Z,39.45
2018-04-12T12:53:23.220Z,39.93
2018-04-12T12:54:23.233Z,37.62
2018-04-12T12:55:23.231Z,38.10
2018-04-12T12:56:23.237Z,38.51
2018-04-12T12:57:23.242Z,37.91
2018-04-12T12:58:23.236Z,37.05
2018-04-12T12:59:23.240Z,36.95
2018-04-12T13:00:23.233Z,37.82
2018-04-12T13:01:23.273Z,39.06
2018-04-12T13:02:23.248Z,37.70
2018-04-12T13:03:23.257Z,37.51
2018-04-12T13:04:23.253Z,37.62
2018-04-12T13:05:23.265Z,38.39
2018-04-12T13:06:23.266Z,38.76
2018-04-12T13:07:23.258Z,38.66
2018-04-12T13:08:23.276Z,37.89
2018-04-12T13:09:23.284Z,37.80
2018-04-12T13:10:23.273Z,37.89
2018-04-12T13:11:23.276Z,37.99
2018-04-12T13:12:23.296Z,38.66
2018-04-12T13:13:23.290Z,39.04
2018-04-12T13:14:23.282Z,38.45
2018-04-12T13:15:23.285Z,39.60
2018-04-12T13:16:23.288Z,39.89
2018-04-12T13:17:23.286Z,40.17
2018-04-12T13:18:23.290Z,41.13
2018-04-12T13:19:23.307Z,41.52
2018-04-12T13:20:23.294Z,40.84
2018-04-12T13:21:23.307Z,40.96
2018-04-12T13:22:23.291Z,41.25
2018-04-12T13:23:23.309Z,40.10
2018-04-12T13:24:23.298Z,38.66
2018-04-12T13:25:23.293Z,39.89
2018-04-12T13:26:23.296Z,39.98
2018-04-12T13:27:23.305Z,40.17
2018-04-12T13:28:23.306Z,41.04
2018-04-12T13:29:23.297Z,40.66
2018-04-12T13:30:23.303Z,40.08
2018-04-12T13:31:23.308Z,39.98
2018-04-12T13:32:23.317Z,38.35
2018-04-12T13:33:23.309Z,39.60
2018-04-12T13:34:23.304Z,40.37